Time;durP1;ratioP1;P1;durP2;ratioP2;P2;SDS_P1;SDS_P2;PMS_P1;PMS_P2;Temp;Humidity;BMP_temperature;BMP_pressure;BME280_temperature;BME280_humidity;BME280_pressure;Samples;Min_cycle;Max_cycle;Signal;HPM_P1;HPM_P2
2024/03/01 00:02:50;;;;;;;25.83;10.15;;;13.80;58.40;;;;;;6286446;28;20356;-75
2024/03/01 00:05:53;;;;;;;31.55;10.65;;;13.80;58.50;;;;;;6289342;28;20106;-75
2024/03/01 00:08:55;;;;;;;27.42;9.32;;;13.80;58.50;;;;;;6289101;28;20024;-76
2024/03/01 00:11:56;;;;;;;24.60;10.10;;;13.80;58.50;;;;;;6304677;28;21555;-75
2024/03/01 00:15:00;;;;;;;28.10;9.93;;;13.80;58.50;;;;;;6286295;28;20024;-75
2024/03/01 00:18:05;;;;;;;24.77;9.75;;;13.80;58.40;;;;;;6308768;28;20126;-75
2024/03/01 00:21:16;;;;;;;23.60;10.18;;;13.80;58.60;;;;;;6295997;28;20040;-75
2024/03/01 00:24:18;;;;;;;34.28;10.52;;;13.80;58.70;;;;;;6284516;28;20428;-76
2024/03/01 00:27:18;;;;;;;29.65;10.85;;;13.80;58.80;;;;;;6291688;28;20028;-75
2024/03/01 00:30:19;;;;;;;23.80;10.20;;;13.80;58.80;;;;;;6297764;28;20066;-75
2024/03/01 00:33:20;;;;;;;23.35;9.07;;;13.80;58.80;;;;;;6300316;28;20456;-74
2024/03/01 00:36:21;;;;;;;24.65;9.13;;;13.80;58.80;;;;;;6306575;28;20023;-75
2024/03/01 00:39:22;;;;;;;25.75;10.60;;;13.90;58.80;;;;;;6303913;28;20093;-76
2024/03/01 00:42:23;;;;;;;21.98;10.38;;;13.90;58.80;;;;;;6291347;28;20107;-76
2024/03/01 00:45:24;;;;;;;21.50;9.32;;;13.90;58.80;;;;;;6299152;28;20020;-75
2024/03/01 00:48:25;;;;;;;25.85;9.85;;;13.90;58.90;;;;;;6301003;28;20074;-74
2024/03/01 00:51:26;;;;;;;21.27;9.27;;;14.10;59.00;;;;;;6297215;28;20116;-76
2024/03/01 00:54:28;;;;;;;24.75;10.98;;;13.90;59.00;;;;;;6306425;28;20341;-76
2024/03/01 00:57:29;;;;;;;28.73;10.80;;;13.90;59.00;;;;;;6271640;28;20026;-76
2024/03/01 01:00:34;;;;;;;28.70;11.35;;;13.90;58.90;;;;;;6303135;28;20487;-76
2024/03/01 01:03:35;;;;;;;23.48;10.63;;;13.90;59.60;;;;;;6306710;28;20108;-74
2024/03/01 01:06:38;;;;;;;28.67;11.65;;;13.90;59.20;;;;;;6310885;28;20083;-74
2024/03/01 01:09:39;;;;;;;29.25;12.05;;;13.90;59.20;;;;;;6298198;28;20396;-76
2024/03/01 01:12:40;;;;;;;26.88;11.35;;;13.90;59.30;;;;;;6309227;28;20040;-75
2024/03/01 01:15:41;;;;;;;36.13;12.98;;;13.90;59.40;;;;;;6297014;28;20146;-76
2024/03/01 01:18:43;;;;;;;30.08;10.38;;;13.90;59.40;;;;;;6301501;28;20475;-75
2024/03/01 01:21:44;;;;;;;27.08;11.25;;;13.80;60.00;;;;;;6302063;28;20093;-74
2024/03/01 01:24:46;;;;;;;24.70;10.63;;;13.80;59.50;;;;;;6286922;28;20329;-76
2024/03/01 01:27:47;;;;;;;30.65;11.25;;;13.80;59.50;;;;;;6309098;28;20031;-76
2024/03/01 01:30:49;;;;;;;30.27;10.95;;;13.80;59.60;;;;;;6292710;28;20027;-75
2024/03/01 01:33:50;;;;;;;22.02;10.82;;;13.80;59.80;;;;;;6286526;28;20025;-76
2024/03/01 01:36:51;;;;;;;25.55;11.60;;;13.80;59.90;;;;;;6273922;28;20430;-75
2024/03/01 01:39:55;;;;;;;23.92;10.23;;;13.70;60.00;;;;;;6299868;28;20813;-75
2024/03/01 01:42:57;;;;;;;25.75;10.77;;;13.70;60.00;;;;;;6320903;28;20364;-76
2024/03/01 01:45:59;;;;;;;29.35;11.10;;;13.70;60.10;;;;;;6302856;28;20016;-75
2024/03/01 01:49:01;;;;;;;35.95;11.25;;;13.70;60.10;;;;;;6291137;28;20033;-75
2024/03/01 01:52:04;;;;;;;27.92;11.18;;;13.70;60.20;;;;;;6305778;28;20056;-76
2024/03/01 01:55:06;;;;;;;24.67;10.52;;;13.70;60.30;;;;;;6313043;28;20012;-76
2024/03/01 01:58:08;;;;;;;27.98;10.75;;;13.70;60.40;;;;;;6307665;28;20016;-75
2024/03/01 02:01:12;;;;;;;29.88;10.85;;;13.60;61.40;;;;;;6295249;28;20579;-75
2024/03/01 02:04:12;;;;;;;29.17;11.60;;;13.60;60.80;;;;;;6289094;28;20032;-75
2024/03/01 02:07:13;;;;;;;29.77;11.55;;;13.60;61.20;;;;;;6286331;28;20021;-75
2024/03/01 02:10:18;;;;;;;24.90;10.68;;;13.60;61.60;;;;;;6306379;28;20016;-74
2024/03/01 02:13:21;;;;;;;28.98;11.10;;;13.50;61.90;;;;;;6307253;28;20401;-75
2024/03/01 02:16:23;;;;;;;26.02;11.65;;;13.50;62.20;;;;;;6292321;28;20111;-75
2024/03/01 02:19:25;;;;;;;29.42;12.40;;;13.50;62.30;;;;;;6276525;28;20385;-75
2024/03/01 02:22:28;;;;;;;35.30;11.43;;;13.40;62.40;;;;;;6301467;28;20039;-75
2024/03/01 02:25:54;;;;;;;30.13;11.30;;;13.40;62.40;;;;;;6293581;28;20213;-75
2024/03/01 02:28:55;;;;;;;29.65;11.77;;;13.40;62.60;;;;;;6311125;28;20112;-76
2024/03/01 02:31:58;;;;;;;26.60;10.63;;;13.40;62.60;;;;;;6294161;28;20024;-75
2024/03/01 02:34:59;;;;;;;23.77;10.68;;;13.50;62.70;;;;;;6310588;28;20223;-74
2024/03/01 02:37:59;;;;;;;26.40;10.95;;;13.40;62.60;;;;;;6291318;28;20491;-75
2024/03/01 02:41:02;;;;;;;25.80;10.80;;;13.40;62.60;;;;;;6309425;28;20460;-74
2024/03/01 02:44:04;;;;;;;28.75;11.07;;;13.40;62.80;;;;;;6309702;28;20103;-75
2024/03/01 02:47:07;;;;;;;26.02;10.65;;;13.30;62.90;;;;;;6296631;28;20057;-75
2024/03/01 02:50:08;;;;;;;25.23;11.15;;;13.40;63.30;;;;;;6288554;28;20035;-75
2024/03/01 02:53:10;;;;;;;27.60;10.80;;;13.20;63.40;;;;;;6267482;28;20323;-75
2024/03/01 02:56:11;;;;;;;31.73;11.48;;;13.10;63.50;;;;;;6292236;28;20015;-75
2024/03/01 02:59:12;;;;;;;31.70;11.00;;;13.10;63.60;;;;;;6292000;28;20415;-76
2024/03/01 03:02:13;;;;;;;26.90;10.18;;;13.10;63.70;;;;;;6309097;28;20198;-75
2024/03/01 03:05:14;;;;;;;26.70;11.32;;;13.10;63.70;;;;;;6297975;28;20021;-75
2024/03/01 03:08:16;;;;;;;29.00;11.75;;;13.00;63.60;;;;;;6285670;28;20806;-76
2024/03/01 03:11:20;;;;;;;25.92;10.70;;;13.00;63.80;;;;;;6308453;28;20028;-74
2024/03/01 03:14:21;;;;;;;24.30;10.80;;;13.00;63.90;;;;;;6303953;28;20088;-75
2024/03/01 03:17:24;;;;;;;29.33;11.48;;;13.10;64.00;;;;;;6296151;28;20102;-76
2024/03/01 03:20:26;;;;;;;31.63;12.15;;;13.10;63.90;;;;;;6303103;28;20123;-74
2024/03/01 03:23:27;;;;;;;31.60;12.82;;;13.10;63.80;;;;;;6309254;28;20143;-75
2024/03/01 03:26:28;;;;;;;32.92;11.65;;;13.20;63.70;;;;;;6309804;28;20060;-76
2024/03/01 03:29:30;;;;;;;31.13;11.15;;;13.20;63.80;;;;;;6288490;28;20024;-75
2024/03/01 03:32:30;;;;;;;31.02;12.27;;;13.20;64.00;;;;;;6294955;28;20441;-76
2024/03/01 03:35:31;;;;;;;24.73;11.63;;;13.10;64.00;;;;;;6312037;28;20028;-75
2024/03/01 03:38:32;;;;;;;28.25;10.75;;;13.10;64.20;;;;;;6312819;28;20023;-76
2024/03/01 03:41:34;;;;;;;36.70;11.27;;;13.10;64.30;;;;;;6305273;28;20024;-75
2024/03/01 03:44:35;;;;;;;32.40;10.40;;;13.00;64.30;;;;;;6302564;28;20017;-76
2024/03/01 03:47:38;;;;;;;31.42;10.82;;;13.00;64.30;;;;;;6309601;28;20017;-75
2024/03/01 03:50:41;;;;;;;30.65;10.70;;;12.90;64.30;;;;;;6288154;28;20062;-76
2024/03/01 03:53:43;;;;;;;20.15;9.93;;;13.00;64.40;;;;;;6276523;28;20052;-76
2024/03/01 03:56:44;;;;;;;22.13;9.82;;;13.00;64.30;;;;;;6293352;28;20213;-74
2024/03/01 04:00:14;;;;;;;26.35;11.55;;;13.00;64.20;;;;;;6298077;28;20056;-75
2024/03/01 04:03:16;;;;;;;27.88;11.38;;;13.10;64.20;;;;;;6297056;28;20428;-76
2024/03/01 04:06:18;;;;;;;30.35;12.65;;;13.10;64.10;;;;;;6291514;28;20119;-74
2024/03/01 04:09:18;;;;;;;33.38;14.65;;;13.00;63.80;;;;;;6290200;28;20023;-76
2024/03/01 04:12:19;;;;;;;34.22;15.32;;;13.00;63.90;;;;;;6282226;28;20510;-75
2024/03/01 04:15:21;;;;;;;42.63;16.10;;;12.90;64.00;;;;;;6307375;28;20383;-75
2024/03/01 04:18:27;;;;;;;40.58;17.17;;;12.90;64.20;;;;;;6307283;28;20024;-75
2024/03/01 04:21:29;;;;;;;41.30;16.92;;;12.90;64.30;;;;;;6289817;28;20175;-76
2024/03/01 04:24:31;;;;;;;45.08;17.05;;;12.90;64.30;;;;;;6300251;28;20524;-76
2024/03/01 04:27:32;;;;;;;28.35;11.98;;;12.80;64.20;;;;;;6280318;28;20069;-74
2024/03/01 04:30:33;;;;;;;31.13;11.90;;;12.80;64.40;;;;;;6309014;28;20027;-74
2024/03/01 04:33:39;;;;;;;31.52;12.05;;;12.80;64.40;;;;;;6309666;28;20403;-76
2024/03/01 04:36:40;;;;;;;29.77;12.20;;;12.90;64.50;;;;;;6311874;28;20016;-74
2024/03/01 04:39:41;;;;;;;24.63;11.50;;;12.90;64.60;;;;;;6309887;28;20118;-76
2024/03/01 04:42:42;;;;;;;28.95;11.73;;;12.90;64.70;;;;;;6298779;28;20017;-76
2024/03/01 04:45:43;;;;;;;25.13;11.55;;;13.00;64.90;;;;;;6279176;28;20035;-75
2024/03/01 04:48:45;;;;;;;26.88;11.82;;;13.00;64.90;;;;;;6289014;28;20028;-75
2024/03/01 04:51:47;;;;;;;32.45;11.75;;;13.00;64.90;;;;;;6288997;28;20443;-75
2024/03/01 04:54:49;;;;;;;26.38;10.88;;;13.00;65.00;;;;;;6298145;28;20093;-75
2024/03/01 04:57:50;;;;;;;29.48;12.57;;;13.00;65.00;;;;;;6306303;28;20164;-75
2024/03/01 05:00:54;;;;;;;11.95;5.43;;;12.90;65.00;;;;;;6308615;28;20680;-76
2024/03/01 05:03:55;;;;;;;25.45;12.13;;;13.00;64.80;;;;;;6297789;28;20050;-75
2024/03/01 05:06:56;;;;;;;23.63;11.68;;;13.00;64.30;;;;;;6300704;28;20017;-76
2024/03/01 05:09:59;;;;;;;29.30;10.60;;;13.00;64.50;;;;;;6290499;28;20154;-76
2024/03/01 05:13:02;;;;;;;20.33;8.00;;;13.00;64.50;;;;;;6306259;28;20046;-76
2024/03/01 05:16:04;;;;;;;28.77;9.18;;;13.00;64.20;;;;;;6288966;28;20043;-75
2024/03/01 05:19:05;;;;;;;22.83;9.13;;;13.00;63.30;;;;;;6307497;28;20093;-75
2024/03/01 05:22:12;;;;;;;17.38;8.30;;;13.10;62.10;;;;;;6292205;28;20421;-75
2024/03/01 05:25:17;;;;;;;19.40;8.43;;;13.10;61.20;;;;;;6292927;28;20407;-75
2024/03/01 05:28:18;;;;;;;14.98;6.50;;;13.20;60.30;;;;;;6267707;28;20403;-75
2024/03/01 05:31:19;;;;;;;18.00;7.63;;;13.20;59.70;;;;;;6269994;28;20059;-75
2024/03/01 05:34:21;;;;;;;18.88;7.53;;;13.20;59.10;;;;;;6298821;28;20437;-75
2024/03/01 05:37:22;;;;;;;16.25;7.05;;;13.20;58.50;;;;;;6310900;28;20047;-75
2024/03/01 05:40:24;;;;;;;11.55;6.32;;;13.20;58.30;;;;;;6304712;28;20585;-75
2024/03/01 05:43:25;;;;;;;16.08;6.78;;;13.30;58.20;;;;;;6274322;28;20025;-75
2024/03/01 05:46:28;;;;;;;19.42;6.57;;;13.20;57.80;;;;;;6303022;28;20158;-75
2024/03/01 05:49:30;;;;;;;18.42;6.85;;;13.20;57.70;;;;;;6283911;28;20028;-74
2024/03/01 05:52:32;;;;;;;15.63;6.35;;;13.20;57.70;;;;;;6288505;28;20032;-75
2024/03/01 05:55:33;;;;;;;15.93;6.20;;;13.20;57.70;;;;;;6286701;28;20028;-76
2024/03/01 05:58:34;;;;;;;20.63;7.22;;;13.20;57.80;;;;;;6304893;28;20032;-75
2024/03/01 06:01:36;;;;;;;15.52;5.75;;;13.20;57.70;;;;;;6298277;28;20052;-74
2024/03/01 06:04:40;;;;;;;15.25;6.13;;;13.20;57.90;;;;;;6305529;28;20024;-74
2024/03/01 06:07:41;;;;;;;22.10;9.13;;;13.30;57.90;;;;;;6287993;28;20024;-76
2024/03/01 06:10:44;;;;;;;21.90;6.70;;;13.30;58.10;;;;;;6307127;28;20017;-76
2024/03/01 06:13:46;;;;;;;24.45;8.95;;;13.30;58.70;;;;;;6286056;28;20025;-75
2024/03/01 06:16:48;;;;;;;20.38;7.90;;;13.30;59.10;;;;;;6300534;28;20116;-76
2024/03/01 06:19:49;;;;;;;14.57;5.78;;;13.30;59.30;;;;;;6292069;28;20024;-75
2024/03/01 06:22:50;;;;;;;12.55;5.38;;;13.30;59.20;;;;;;6306065;28;20472;-75
2024/03/01 06:25:51;;;;;;;7.53;4.20;;;13.20;58.80;;;;;;6311354;28;20080;-74
2024/03/01 06:28:52;;;;;;;11.85;4.93;;;13.20;58.50;;;;;;6300569;28;20027;-75
2024/03/01 06:31:53;;;;;;;9.65;4.55;;;13.20;58.30;;;;;;6277334;28;20062;-75
2024/03/01 06:34:56;;;;;;;13.40;4.20;;;13.20;58.40;;;;;;6307537;28;20054;-75
2024/03/01 06:37:57;;;;;;;7.60;4.22;;;13.20;58.30;;;;;;6295997;28;20358;-75
2024/03/01 06:41:02;;;;;;;9.70;4.20;;;13.30;58.30;;;;;;6275454;28;20423;-75
2024/03/01 06:44:03;;;;;;;6.65;3.45;;;13.20;58.20;;;;;;6292266;28;20028;-76
2024/03/01 06:47:04;;;;;;;8.70;3.85;;;13.30;58.10;;;;;;6275868;28;20027;-74
2024/03/01 06:50:08;;;;;;;8.43;3.53;;;13.20;58.00;;;;;;6276201;28;20039;-75
2024/03/01 06:53:10;;;;;;;10.07;4.13;;;13.30;58.20;;;;;;6308558;28;20050;-75
2024/03/01 06:56:13;;;;;;;6.28;2.90;;;13.30;58.20;;;;;;6275570;28;20453;-75
2024/03/01 06:59:14;;;;;;;4.93;2.30;;;13.20;58.30;;;;;;6290655;28;20031;-77
2024/03/01 07:02:16;;;;;;;5.72;2.78;;;13.20;58.20;;;;;;6296354;28;20459;-75
2024/03/01 07:05:17;;;;;;;5.45;2.50;;;13.20;58.30;;;;;;6295042;28;20030;-76
2024/03/01 07:08:19;;;;;;;3.58;1.80;;;13.20;58.30;;;;;;6288672;28;20028;-76
2024/03/01 07:11:21;;;;;;;5.78;2.20;;;13.20;58.40;;;;;;6295555;28;20028;-76
2024/03/01 07:14:22;;;;;;;4.82;2.22;;;13.20;58.30;;;;;;6292018;28;21411;-75
2024/03/01 07:17:23;;;;;;;4.32;1.83;;;13.20;58.30;;;;;;6292073;28;20080;-75
2024/03/01 07:20:24;;;;;;;3.47;2.38;;;13.20;58.10;;;;;;6292330;28;20031;-75
2024/03/01 07:23:25;;;;;;;3.30;1.70;;;13.20;58.00;;;;;;6292325;28;20031;-75
2024/03/01 07:26:26;;;;;;;3.58;1.77;;;13.20;57.90;;;;;;6292338;28;20163;-75
2024/03/01 07:29:28;;;;;;;3.90;1.60;;;13.20;57.90;;;;;;6302830;28;20151;-73
2024/03/01 07:32:30;;;;;;;2.25;1.30;;;13.20;57.90;;;;;;6305030;28;20494;-75
2024/03/01 07:35:32;;;;;;;2.50;1.50;;;13.30;57.80;;;;;;6302137;28;20012;-75
2024/03/01 07:38:33;;;;;;;1.77;1.30;;;13.30;57.70;;;;;;6294330;28;20025;-74
2024/03/01 07:41:35;;;;;;;2.40;1.50;;;13.30;57.80;;;;;;6307024;28;20103;-74
2024/03/01 07:44:37;;;;;;;6.55;1.27;;;13.30;57.90;;;;;;6302747;28;20499;-74
2024/03/01 07:47:42;;;;;;;7.15;1.25;;;13.30;57.80;;;;;;6300063;28;20141;-74
2024/03/01 07:50:44;;;;;;;1.60;1.00;;;13.30;57.80;;;;;;6293826;28;20042;-73
2024/03/01 07:53:47;;;;;;;2.38;1.23;;;13.30;57.70;;;;;;6286696;28;20031;-74
2024/03/01 07:56:49;;;;;;;3.63;1.42;;;13.40;57.60;;;;;;6301050;28;20043;-76
2024/03/01 07:59:52;;;;;;;1.27;1.00;;;13.40;57.60;;;;;;6307153;28;20028;-77
2024/03/01 08:03:09;;;;;;;2.20;1.05;;;13.40;57.50;;;;;;6316754;28;20581;-76
2024/03/01 08:06:11;;;;;;;1.17;0.75;;;13.30;57.50;;;;;;6284237;28;20449;-76
2024/03/01 08:09:17;;;;;;;2.17;1.25;;;13.30;57.40;;;;;;6281884;28;20116;-77
2024/03/01 08:12:18;;;;;;;2.13;1.20;;;13.40;57.50;;;;;;6289139;28;20016;-76
2024/03/01 08:15:25;;;;;;;2.38;1.30;;;13.40;57.50;;;;;;6292699;28;20032;-77
2024/03/01 08:18:27;;;;;;;1.13;0.80;;;13.40;57.30;;;;;;6271468;28;20031;-78
2024/03/01 08:21:28;;;;;;;0.60;0.60;;;13.50;57.20;;;;;;6291371;28;20040;-76
2024/03/01 08:24:31;;;;;;;1.67;0.90;;;13.50;57.00;;;;;;6271487;28;20032;-78
2024/03/01 08:27:34;;;;;;;0.95;0.68;;;13.60;56.80;;;;;;6295770;28;20028;-77
2024/03/01 08:30:44;;;;;;;0.98;0.80;;;13.60;56.70;;;;;;6288232;28;20028;-76
2024/03/01 08:33:45;;;;;;;7.90;0.88;;;13.70;56.50;;;;;;6293345;28;20431;-76
2024/03/01 08:36:46;;;;;;;1.08;0.68;;;13.80;56.20;;;;;;6297313;28;20096;-76
2024/03/01 08:39:47;;;;;;;4.63;1.20;;;13.90;56.00;;;;;;6305173;28;20024;-75
2024/03/01 08:42:49;;;;;;;2.22;0.88;;;13.90;55.70;;;;;;6305852;28;20178;-76
2024/03/01 08:46:01;;;;;;;2.20;1.13;;;13.90;55.50;;;;;;6274901;28;20028;-76
2024/03/01 08:49:42;;;;;;;1.02;0.52;;;13.90;55.50;;;;;;6301788;28;20035;-78
2024/03/01 08:52:44;;;;;;;1.02;0.60;;;14.00;55.40;;;;;;6264294;28;20528;-77
2024/03/01 08:55:50;;;;;;;0.77;0.77;;;14.00;55.10;;;;;;6289447;28;20104;-77
2024/03/01 08:58:51;;;;;;;2.85;0.80;;;14.00;54.80;;;;;;6302960;28;20020;-76
2024/03/01 09:01:52;;;;;;;1.08;0.65;;;14.00;54.80;;;;;;6279968;28;20086;-76
2024/03/01 09:04:53;;;;;;;1.20;0.95;;;14.00;54.80;;;;;;6300705;28;20219;-76
2024/03/01 09:07:57;;;;;;;2.72;1.33;;;14.10;54.80;;;;;;6295462;28;21439;-77
2024/03/01 09:10:58;;;;;;;1.50;0.93;;;14.20;54.80;;;;;;6267607;28;20413;-76
2024/03/01 09:14:01;;;;;;;4.68;0.82;;;14.30;54.60;;;;;;6287196;28;20044;-76
2024/03/01 09:17:06;;;;;;;1.60;1.10;;;14.30;54.30;;;;;;6312862;28;20076;-76
2024/03/01 09:20:44;;;;;;;1.38;0.90;;;14.40;54.20;;;;;;6269722;28;20055;-77
2024/03/01 09:23:48;;;;;;;1.30;0.77;;;14.40;54.10;;;;;;6306951;28;20028;-76
2024/03/01 09:26:50;;;;;;;3.22;0.90;;;14.40;54.10;;;;;;6301347;28;20031;-75
2024/03/01 09:29:51;;;;;;;4.50;1.20;;;14.50;53.90;;;;;;6291162;28;20023;-77
2024/03/01 09:32:52;;;;;;;1.67;1.23;;;14.50;53.70;;;;;;6286440;28;20032;-77
2024/03/01 09:35:53;;;;;;;2.58;1.23;;;14.40;53.50;;;;;;6295888;28;20027;-77
2024/03/01 09:39:04;;;;;;;2.60;1.40;;;14.30;53.70;;;;;;6312069;28;20429;-76
2024/03/01 09:42:39;;;;;;;1.48;1.08;;;14.40;54.00;;;;;;6310253;28;20032;-79
2024/03/01 09:45:51;;;;;;;1.95;0.80;;;14.40;54.00;;;;;;6304424;28;20371;-77
2024/03/01 09:48:51;;;;;;;4.55;1.52;;;14.40;53.90;;;;;;6303870;28;20024;-77
2024/03/01 09:52:38;;;;;;;2.83;1.83;;;14.50;53.80;;;;;;6307991;28;20619;-76
2024/03/01 09:55:59;;;;;;;2.78;1.38;;;14.40;53.70;;;;;;6309022;28;20020;-76
2024/03/01 09:59:18;;;;;;;3.00;1.17;;;14.50;53.60;;;;;;6301375;28;20031;-76
2024/03/01 10:03:17;;;;;;;1.90;1.20;;;14.60;53.20;;;;;;6309207;28;20569;-77
2024/03/01 10:06:44;;;;;;;3.00;1.52;;;14.60;52.70;;;;;;6199546;28;20088;-76
2024/03/01 10:10:04;;;;;;;4.78;1.60;;;14.60;52.90;;;;;;6176455;28;20238;-77
2024/03/01 10:13:24;;;;;;;1.83;1.13;;;14.70;52.70;;;;;;6192060;28;20029;-74
2024/03/01 10:16:54;;;;;;;3.28;1.63;;;14.60;52.60;;;;;;6224257;28;20018;-76
2024/03/01 10:20:00;;;;;;;;;;;14.50;52.40;;;;;;6208026;28;20100;-77
2024/03/01 10:23:21;;;;;;;2.55;1.13;;;14.50;52.30;;;;;;6207166;28;19964;-77
2024/03/01 10:26:31;;;;;;;2.88;1.50;;;14.50;52.20;;;;;;6223247;28;20022;-75
2024/03/01 10:30:05;;;;;;;1.00;0.95;;;14.30;52.10;;;;;;6190045;28;20092;-76
2024/03/01 10:33:33;;;;;;;1.30;0.85;;;14.40;52.60;;;;;;6176803;28;20037;-76
2024/03/01 10:36:43;;;;;;;2.00;1.25;;;14.30;51.90;;;;;;6246316;28;20024;-77
2024/03/01 10:40:17;;;;;;;1.17;0.95;;;14.30;52.10;;;;;;6285017;28;20056;-77
2024/03/01 10:43:46;;;;;;;1.60;1.25;;;14.30;52.00;;;;;;6303777;28;20032;-77
2024/03/01 10:46:47;;;;;;;2.65;1.40;;;14.30;51.70;;;;;;6298156;28;20195;-76
2024/03/01 10:50:07;;;;;;;1.17;0.98;;;14.30;51.70;;;;;;6290043;28;20036;-78
2024/03/01 10:53:16;;;;;;;0.80;0.80;;;14.40;51.60;;;;;;6307736;28;20031;-75
2024/03/01 10:56:20;;;;;;;6.70;3.42;;;14.40;51.30;;;;;;6294878;28;20051;-77
2024/03/01 10:59:35;;;;;;;1.83;1.20;;;14.50;51.10;;;;;;6306993;28;20484;-77
2024/03/01 11:02:47;;;;;;;6.10;0.95;;;14.50;51.00;;;;;;6289702;28;20074;-77
2024/03/01 11:06:10;;;;;;;2.58;0.90;;;14.60;50.60;;;;;;6290117;28;20801;-75
2024/03/01 11:09:21;;;;;;;1.23;0.82;;;14.60;50.40;;;;;;6291081;28;20420;-78
2024/03/01 11:12:52;;;;;;;6.30;0.93;;;14.60;50.50;;;;;;6305314;28;20089;-77
2024/03/01 11:15:57;;;;;;;0.80;0.68;;;14.70;50.30;;;;;;6232146;28;20199;-76
2024/03/01 11:19:14;;;;;;;2.95;1.20;;;14.70;49.90;;;;;;6198597;28;20029;-77
2024/03/01 11:22:27;;;;;;;2.72;1.00;;;14.60;49.90;;;;;;6214603;28;20044;-76
2024/03/01 11:25:47;;;;;;;3.67;1.67;;;14.50;49.70;;;;;;6200332;28;20812;-75
2024/03/01 11:28:59;;;;;;;1.83;0.90;;;14.40;49.90;;;;;;6216119;28;20132;-77
2024/03/01 11:32:14;;;;;;;1.27;1.05;;;14.30;50.10;;;;;;6215104;28;20148;-77
2024/03/01 11:35:44;;;;;;;0.73;0.70;;;14.30;50.20;;;;;;6215010;28;20105;-76
2024/03/01 11:38:57;;;;;;;1.02;0.88;;;14.30;50.10;;;;;;6229030;28;20086;-76
2024/03/01 11:42:30;;;;;;;1.95;1.00;;;14.30;50.00;;;;;;6196520;28;20046;-77
2024/03/01 11:45:53;;;;;;;1.30;0.80;;;14.30;49.90;;;;;;6164746;28;20040;-77
2024/03/01 11:49:18;;;;;;;1.33;0.77;;;14.30;49.80;;;;;;6165117;28;20110;-76
2024/03/01 11:52:34;;;;;;;1.80;1.10;;;14.30;49.80;;;;;;6200537;28;20026;-76
2024/03/01 11:56:01;;;;;;;2.03;1.60;;;14.30;49.80;;;;;;6234490;28;20662;-76
2024/03/01 11:59:32;;;;;;;4.03;1.10;;;14.30;49.80;;;;;;6233893;28;20040;-76
2024/03/01 12:02:32;;;;;;;1.60;1.17;;;14.40;49.70;;;;;;6231421;28;20187;-76
2024/03/01 12:06:01;;;;;;;4.28;0.93;;;14.50;49.70;;;;;;6237130;28;20021;-75
2024/03/01 12:09:14;;;;;;;1.45;1.10;;;14.60;49.60;;;;;;6231866;28;20039;-77
2024/03/01 12:12:46;;;;;;;2.42;0.88;;;14.80;49.20;;;;;;6226529;28;20025;-77
2024/03/01 12:15:59;;;;;;;2.17;1.35;;;15.00;48.60;;;;;;6224275;28;20029;-76
2024/03/01 12:19:11;;;;;;;2.08;1.02;;;15.10;48.50;;;;;;6221430;28;20100;-77
2024/03/01 12:22:37;;;;;;;0.85;0.70;;;15.20;48.20;;;;;;6272236;28;20047;-77
2024/03/01 12:25:39;;;;;;;6.47;1.10;;;15.30;48.00;;;;;;6283017;28;20043;-76
2024/03/01 12:28:54;;;;;;;3.53;0.93;;;15.70;47.80;;;;;;6305052;28;20078;-77
2024/03/01 12:32:03;;;;;;;0.75;0.60;;;15.90;47.30;;;;;;6287000;28;20036;-76
2024/03/01 12:35:32;;;;;;;1.48;0.90;;;16.10;46.50;;;;;;6271139;28;20451;-76
2024/03/01 12:38:55;;;;;;;1.63;0.80;;;16.20;46.00;;;;;;6277449;28;20078;-75
2024/03/01 12:42:05;;;;;;;0.98;0.80;;;16.40;45.60;;;;;;6287470;28;20070;-76
2024/03/01 12:45:09;;;;;;;2.60;0.70;;;16.50;45.30;;;;;;6307813;28;20076;-75
2024/03/01 12:48:38;;;;;;;1.55;1.00;;;16.50;44.80;;;;;;6302448;28;20058;-77
2024/03/01 12:51:58;;;;;;;3.50;1.33;;;16.50;44.50;;;;;;6292440;28;20103;-77
2024/03/01 12:55:06;;;;;;;1.02;0.90;;;16.50;44.60;;;;;;6290865;28;20099;-78
2024/03/01 12:58:28;;;;;;;1.95;0.93;;;16.50;44.70;;;;;;6312998;28;20115;-75
2024/03/01 13:01:55;;;;;;;2.20;1.20;;;16.50;44.70;;;;;;6300882;28;20028;-76
2024/03/01 13:05:26;;;;;;;7.10;1.83;;;16.60;44.70;;;;;;6239103;28;20048;-76
2024/03/01 13:08:39;;;;;;;4.82;1.88;;;16.70;44.50;;;;;;6304359;28;20020;-76
2024/03/01 13:11:43;;;;;;;5.18;2.40;;;17.00;44.70;;;;;;6285933;28;20039;-78
2024/03/01 13:15:06;;;;;;;2.95;1.77;;;17.30;44.60;;;;;;6290398;28;20081;-76
2024/03/01 13:18:12;;;;;;;5.00;1.90;;;17.60;44.50;;;;;;6305259;28;20098;-75
2024/03/01 13:21:47;;;;;;;3.50;2.08;;;17.70;44.20;;;;;;6307723;28;20083;-75
2024/03/01 13:25:15;;;;;;;5.05;2.58;;;17.90;44.30;;;;;;6307625;28;20410;-76
2024/03/01 13:28:25;;;;;;;6.57;2.65;;;18.00;44.20;;;;;;6310821;28;20019;-77
2024/03/01 13:31:33;;;;;;;4.18;2.45;;;18.00;44.10;;;;;;6289212;28;20077;-76
2024/03/01 13:34:40;;;;;;;4.47;2.40;;;18.10;44.00;;;;;;6284190;28;20038;-75
2024/03/01 13:38:28;;;;;;;5.57;2.35;;;18.10;44.10;;;;;;6299897;28;20035;-76
2024/03/01 13:41:32;;;;;;;5.57;2.83;;;18.10;44.20;;;;;;6307965;28;20111;-76
2024/03/01 13:44:40;;;;;;;5.68;2.92;;;18.20;44.10;;;;;;6295798;28;20460;-77
2024/03/01 13:47:49;;;;;;;6.13;2.72;;;18.30;44.10;;;;;;6288940;28;20746;-77
2024/03/01 13:50:51;;;;;;;10.07;4.13;;;18.40;44.00;;;;;;6308608;28;20051;-77
2024/03/01 13:53:54;;;;;;;10.52;3.83;;;18.40;43.70;;;;;;6279980;28;20527;-76
2024/03/01 13:56:55;;;;;;;13.40;2.50;;;18.40;43.80;;;;;;6299652;28;20024;-76
2024/03/01 13:59:56;;;;;;;6.05;3.00;;;18.30;44.00;;;;;;6303632;28;20032;-76
2024/03/01 14:03:01;;;;;;;10.75;3.83;;;18.20;44.10;;;;;;6306299;28;20024;-77
2024/03/01 14:06:03;;;;;;;6.07;3.20;;;18.10;44.10;;;;;;6310205;28;20088;-76
2024/03/01 14:09:12;;;;;;;3.60;2.50;;;18.10;44.40;;;;;;6308211;28;20067;-77
2024/03/01 14:12:15;;;;;;;3.67;2.40;;;18.00;44.30;;;;;;6300743;28;20237;-76
2024/03/01 14:15:17;;;;;;;4.82;2.17;;;17.90;44.40;;;;;;6294053;28;20436;-77
2024/03/01 14:18:19;;;;;;;4.43;2.60;;;17.90;44.60;;;;;;6298907;28;20097;-77
2024/03/01 14:21:21;;;;;;;5.72;2.65;;;17.80;44.80;;;;;;6300368;28;20093;-76
2024/03/01 14:24:22;;;;;;;5.03;2.40;;;17.80;44.90;;;;;;6308954;28;20055;-77
2024/03/01 14:27:23;;;;;;;5.38;2.85;;;17.80;45.00;;;;;;6288040;28;20114;-76
2024/03/01 14:30:25;;;;;;;4.70;2.20;;;17.80;44.90;;;;;;6300481;28;20050;-76
2024/03/01 14:33:27;;;;;;;3.58;2.00;;;17.70;44.80;;;;;;6284993;28;20031;-76
2024/03/01 14:36:32;;;;;;;3.78;2.25;;;17.70;44.80;;;;;;6285578;28;20031;-76
2024/03/01 14:39:33;;;;;;;3.15;1.77;;;17.50;44.70;;;;;;6303807;28;20085;-75
2024/03/01 14:42:36;;;;;;;3.28;1.98;;;17.50;44.90;;;;;;6292149;28;20119;-77
2024/03/01 14:45:38;;;;;;;3.28;1.90;;;17.40;44.90;;;;;;6293791;28;20110;-75
2024/03/01 14:48:46;;;;;;;8.07;2.20;;;17.40;45.10;;;;;;6287322;28;20144;-76
2024/03/01 14:51:50;;;;;;;4.07;1.73;;;17.30;45.20;;;;;;6285124;28;20099;-76
2024/03/01 14:54:51;;;;;;;8.05;2.00;;;17.40;45.20;;;;;;6290968;28;20028;-77
2024/03/01 14:57:56;;;;;;;5.55;2.15;;;17.40;45.20;;;;;;6307601;28;20024;-76
2024/03/01 15:00:59;;;;;;;3.78;1.77;;;17.40;45.10;;;;;;6283337;28;20043;-76
2024/03/01 15:04:00;;;;;;;2.88;1.48;;;17.40;44.90;;;;;;6300099;28;20020;-76
2024/03/01 15:07:08;;;;;;;3.45;0.98;;;17.50;44.50;;;;;;6287768;28;20028;-76
2024/03/01 15:10:18;;;;;;;2.25;0.60;;;17.50;43.70;;;;;;6301113;28;20020;-77
2024/03/01 15:13:26;;;;;;;6.05;1.10;;;17.40;42.50;;;;;;6293847;28;20021;-76
2024/03/01 15:16:27;;;;;;;3.20;1.63;;;17.40;42.30;;;;;;6290030;28;20445;-77
2024/03/01 15:19:28;;;;;;;2.03;1.52;;;17.40;42.70;;;;;;6287595;28;20267;-76
2024/03/01 15:22:29;;;;;;;1.45;1.15;;;17.40;43.10;;;;;;6299898;28;20091;-78
2024/03/01 15:25:32;;;;;;;2.25;1.42;;;17.40;43.50;;;;;;6289974;28;20422;-76
2024/03/01 15:28:40;;;;;;;2.40;1.40;;;17.30;43.70;;;;;;6298487;28;20023;-76
2024/03/01 15:31:41;;;;;;;2.13;1.15;;;17.30;43.90;;;;;;6287017;28;20082;-77
2024/03/01 15:34:42;;;;;;;3.28;1.58;;;17.30;44.00;;;;;;6285672;28;20103;-76
2024/03/01 15:37:45;;;;;;;3.78;1.35;;;17.30;44.10;;;;;;6286718;28;20035;-76
2024/03/01 15:40:46;;;;;;;2.25;1.42;;;17.30;44.10;;;;;;6286372;28;20028;-77
2024/03/01 15:43:48;;;;;;;2.53;1.50;;;17.40;44.10;;;;;;6309025;28;20051;-76
2024/03/01 15:46:49;;;;;;;4.82;1.35;;;17.40;44.10;;;;;;6305074;28;20463;-75
2024/03/01 15:49:50;;;;;;;1.58;1.15;;;17.30;44.00;;;;;;6322889;28;20115;-76
2024/03/01 15:52:54;;;;;;;1.63;1.17;;;17.30;44.00;;;;;;6279941;28;20028;-77
2024/03/01 15:56:00;;;;;;;2.10;0.88;;;17.20;44.10;;;;;;6300542;28;20107;-76
2024/03/01 15:59:06;;;;;;;1.83;1.17;;;17.20;44.20;;;;;;6305365;28;20051;-74
2024/03/01 16:02:08;;;;;;;1.75;1.00;;;17.00;44.20;;;;;;6293503;28;20206;-76
2024/03/01 16:05:10;;;;;;;1.80;0.98;;;17.00;44.40;;;;;;6294081;28;20050;-76